sensor_id;sensor_type;location;lat;lon;timestamp;P1;durP1;ratioP1;P2;durP2;ratioP2
7607;SDS011;3845;48.120;11.534;2022-12-07T00:02:20;8.80;;;7.87;;
7607;SDS011;3845;48.120;11.534;2022-12-07T00:04:48;9.13;;;7.80;;
7607;SDS011;3845;48.120;11.534;2022-12-07T00:07:13;10.33;;;8.73;;
7607;SDS011;3845;48.120;11.534;2022-12-07T00:09:39;9.30;;;7.90;;
7607;SDS011;3845;48.120;11.534;2022-12-07T00:12:06;8.60;;;7.70;;
7607;SDS011;3845;48.120;11.534;2022-12-07T00:14:31;9.53;;;8.50;;
7607;SDS011;3845;48.120;11.534;2022-12-07T00:16:57;11.17;;;8.30;;
7607;SDS011;3845;48.120;11.534;2022-12-07T00:19:22;11.33;;;8.70;;
7607;SDS011;3845;48.120;11.534;2022-12-07T00:21:48;8.40;;;7.33;;
7607;SDS011;3845;48.120;11.534;2022-12-07T00:24:14;9.63;;;8.43;;
7607;SDS011;3845;48.120;11.534;2022-12-07T00:26:40;10.47;;;8.47;;
7607;SDS011;3845;48.120;11.534;2022-12-07T00:29:07;7.30;;;6.50;;
7607;SDS011;3845;48.120;11.534;2022-12-07T00:31:36;7.67;;;6.60;;
7607;SDS011;3845;48.120;11.534;2022-12-07T00:34:04;8.70;;;7.80;;
7607;SDS011;3845;48.120;11.534;2022-12-07T00:36:30;9.17;;;7.43;;
7607;SDS011;3845;48.120;11.534;2022-12-07T00:38:57;8.03;;;6.70;;
7607;SDS011;3845;48.120;11.534;2022-12-07T00:41:24;7.37;;;6.57;;
7607;SDS011;3845;48.120;11.534;2022-12-07T00:43:50;7.90;;;6.17;;
7607;SDS011;3845;48.120;11.534;2022-12-07T00:46:16;7.10;;;6.00;;
7607;SDS011;3845;48.120;11.534;2022-12-07T00:48:42;6.97;;;6.03;;
7607;SDS011;3845;48.120;11.534;2022-12-07T00:51:08;7.10;;;6.27;;
7607;SDS011;3845;48.120;11.534;2022-12-07T00:53:35;7.17;;;6.40;;
7607;SDS011;3845;48.120;11.534;2022-12-07T00:56:04;8.50;;;6.40;;
7607;SDS011;3845;48.120;11.534;2022-12-07T00:58:30;6.57;;;5.77;;
7607;SDS011;3845;48.120;11.534;2022-12-07T01:00:56;6.67;;;5.70;;
7607;SDS011;3845;48.120;11.534;2022-12-07T01:03:25;6.43;;;5.50;;
7607;SDS011;3845;48.120;11.534;2022-12-07T01:05:50;5.70;;;5.07;;
7607;SDS011;3845;48.120;11.534;2022-12-07T01:08:17;6.00;;;5.27;;
7607;SDS011;3845;48.120;11.534;2022-12-07T01:10:42;6.17;;;5.30;;
7607;SDS011;3845;48.120;11.534;2022-12-07T01:13:08;6.47;;;5.60;;
7607;SDS011;3845;48.120;11.534;2022-12-07T01:15:33;7.07;;;6.37;;
7607;SDS011;3845;48.120;11.534;2022-12-07T01:17:58;7.77;;;6.97;;
7607;SDS011;3845;48.120;11.534;2022-12-07T01:20:23;7.40;;;6.37;;
7607;SDS011;3845;48.120;11.534;2022-12-07T01:22:49;8.23;;;6.37;;
7607;SDS011;3845;48.120;11.534;2022-12-07T01:25:14;6.67;;;5.97;;
7607;SDS011;3845;48.120;11.534;2022-12-07T01:27:39;6.67;;;5.83;;
7607;SDS011;3845;48.120;11.534;2022-12-07T01:30:05;6.63;;;5.80;;
7607;SDS011;3845;48.120;11.534;2022-12-07T01:32:31;7.27;;;6.00;;
7607;SDS011;3845;48.120;11.534;2022-12-07T01:34:57;7.53;;;6.30;;
7607;SDS011;3845;48.120;11.534;2022-12-07T01:37:22;6.60;;;5.80;;
7607;SDS011;3845;48.120;11.534;2022-12-07T01:39:48;10.50;;;9.13;;
7607;SDS011;3845;48.120;11.534;2022-12-07T01:42:14;8.67;;;7.30;;
7607;SDS011;3845;48.120;11.534;2022-12-07T01:47:43;7.93;;;6.50;;
7607;SDS011;3845;48.120;11.534;2022-12-07T01:50:09;7.20;;;6.43;;
7607;SDS011;3845;48.120;11.534;2022-12-07T01:52:35;7.00;;;6.23;;
7607;SDS011;3845;48.120;11.534;2022-12-07T01:55:02;7.30;;;6.17;;
7607;SDS011;3845;48.120;11.534;2022-12-07T01:57:29;10.57;;;7.50;;
7607;SDS011;3845;48.120;11.534;2022-12-07T01:59:56;7.30;;;6.33;;
7607;SDS011;3845;48.120;11.534;2022-12-07T02:02:24;7.50;;;6.50;;
7607;SDS011;3845;48.120;11.534;2022-12-07T02:04:52;7.47;;;6.50;;
7607;SDS011;3845;48.120;11.534;2022-12-07T02:07:18;7.87;;;6.87;;
7607;SDS011;3845;48.120;11.534;2022-12-07T02:09:45;7.50;;;6.37;;
7607;SDS011;3845;48.120;11.534;2022-12-07T02:12:10;9.20;;;6.13;;
7607;SDS011;3845;48.120;11.534;2022-12-07T02:14:35;6.77;;;6.07;;
7607;SDS011;3845;48.120;11.534;2022-12-07T02:30:45;6.17;;;5.57;;
7607;SDS011;3845;48.120;11.534;2022-12-07T02:33:25;6.33;;;5.40;;
7607;SDS011;3845;48.120;11.534;2022-12-07T02:36:13;7.87;;;5.93;;
7607;SDS011;3845;48.120;11.534;2022-12-07T02:41:21;6.00;;;5.40;;
7607;SDS011;3845;48.120;11.534;2022-12-07T02:43:53;6.53;;;5.60;;
7607;SDS011;3845;48.120;11.534;2022-12-07T02:46:22;6.27;;;5.37;;
7607;SDS011;3845;48.120;11.534;2022-12-07T02:48:49;8.07;;;6.43;;
7607;SDS011;3845;48.120;11.534;2022-12-07T02:51:16;8.33;;;6.67;;
7607;SDS011;3845;48.120;11.534;2022-12-07T02:53:43;7.77;;;6.60;;
7607;SDS011;3845;48.120;11.534;2022-12-07T02:59:02;7.00;;;6.03;;
7607;SDS011;3845;48.120;11.534;2022-12-07T03:13:04;6.90;;;6.07;;
7607;SDS011;3845;48.120;11.534;2022-12-07T03:15:34;5.90;;;5.23;;
7607;SDS011;3845;48.120;11.534;2022-12-07T03:18:03;7.90;;;7.10;;
7607;SDS011;3845;48.120;11.534;2022-12-07T03:20:29;7.40;;;6.40;;
7607;SDS011;3845;48.120;11.534;2022-12-07T03:22:56;7.57;;;6.20;;
7607;SDS011;3845;48.120;11.534;2022-12-07T03:25:22;9.07;;;6.43;;
7607;SDS011;3845;48.120;11.534;2022-12-07T03:27:57;6.60;;;5.80;;
7607;SDS011;3845;48.120;11.534;2022-12-07T03:31:26;9.13;;;7.13;;
7607;SDS011;3845;48.120;11.534;2022-12-07T03:33:32;9.03;;;6.73;;
7607;SDS011;3845;48.120;11.534;2022-12-07T03:36:04;7.80;;;6.20;;
7607;SDS011;3845;48.120;11.534;2022-12-07T03:38:57;8.07;;;6.67;;
7607;SDS011;3845;48.120;11.534;2022-12-07T03:41:32;8.03;;;6.27;;
7607;SDS011;3845;48.120;11.534;2022-12-07T03:43:59;7.30;;;6.50;;
7607;SDS011;3845;48.120;11.534;2022-12-07T03:46:28;8.47;;;6.50;;
7607;SDS011;3845;48.120;11.534;2022-12-07T03:49:18;8.10;;;6.20;;
7607;SDS011;3845;48.120;11.534;2022-12-07T03:52:15;6.23;;;5.63;;
7607;SDS011;3845;48.120;11.534;2022-12-07T03:54:44;9.10;;;7.30;;
7607;SDS011;3845;48.120;11.534;2022-12-07T03:57:13;7.97;;;7.17;;
7607;SDS011;3845;48.120;11.534;2022-12-07T03:59:39;8.40;;;7.50;;
7607;SDS011;3845;48.120;11.534;2022-12-07T04:02:05;7.13;;;6.27;;
7607;SDS011;3845;48.120;11.534;2022-12-07T04:04:31;8.40;;;6.70;;
7607;SDS011;3845;48.120;11.534;2022-12-07T04:06:57;8.00;;;6.87;;
7607;SDS011;3845;48.120;11.534;2022-12-07T04:09:22;8.80;;;7.13;;
7607;SDS011;3845;48.120;11.534;2022-12-07T04:11:48;6.70;;;5.87;;
7607;SDS011;3845;48.120;11.534;2022-12-07T04:14:13;8.10;;;6.90;;
7607;SDS011;3845;48.120;11.534;2022-12-07T04:16:48;8.80;;;6.73;;
7607;SDS011;3845;48.120;11.534;2022-12-07T04:19:15;7.50;;;6.67;;
7607;SDS011;3845;48.120;11.534;2022-12-07T04:21:42;6.80;;;6.10;;
7607;SDS011;3845;48.120;11.534;2022-12-07T04:24:08;7.57;;;6.47;;
7607;SDS011;3845;48.120;11.534;2022-12-07T04:26:33;8.90;;;8.00;;
7607;SDS011;3845;48.120;11.534;2022-12-07T04:28:59;8.30;;;7.40;;
7607;SDS011;3845;48.120;11.534;2022-12-07T04:31:24;9.63;;;8.07;;
7607;SDS011;3845;48.120;11.534;2022-12-07T04:33:49;10.33;;;7.80;;
7607;SDS011;3845;48.120;11.534;2022-12-07T04:36:15;11.53;;;8.10;;
7607;SDS011;3845;48.120;11.534;2022-12-07T04:38:40;9.70;;;8.43;;
7607;SDS011;3845;48.120;11.534;2022-12-07T04:41:06;9.77;;;8.00;;
7607;SDS011;3845;48.120;11.534;2022-12-07T04:43:31;9.23;;;7.60;;
7607;SDS011;3845;48.120;11.534;2022-12-07T04:45:57;8.50;;;7.20;;
7607;SDS011;3845;48.120;11.534;2022-12-07T04:48:22;7.97;;;6.57;;
7607;SDS011;3845;48.120;11.534;2022-12-07T04:50:48;8.13;;;6.80;;
7607;SDS011;3845;48.120;11.534;2022-12-07T04:53:14;9.37;;;7.53;;
7607;SDS011;3845;48.120;11.534;2022-12-07T04:55:39;9.27;;;8.17;;
7607;SDS011;3845;48.120;11.534;2022-12-07T04:58:05;8.73;;;7.60;;
7607;SDS011;3845;48.120;11.534;2022-12-07T05:00:30;10.00;;;8.93;;
7607;SDS011;3845;48.120;11.534;2022-12-07T05:02:55;10.47;;;9.37;;
7607;SDS011;3845;48.120;11.534;2022-12-07T05:05:20;10.53;;;8.77;;
7607;SDS011;3845;48.120;11.534;2022-12-07T05:07:46;11.77;;;10.07;;
7607;SDS011;3845;48.120;11.534;2022-12-07T05:10:11;10.50;;;9.30;;
7607;SDS011;3845;48.120;11.534;2022-12-07T05:12:36;10.37;;;8.60;;
7607;SDS011;3845;48.120;11.534;2022-12-07T05:15:02;8.87;;;7.87;;
7607;SDS011;3845;48.120;11.534;2022-12-07T05:17:27;11.00;;;9.27;;
7607;SDS011;3845;48.120;11.534;2022-12-07T05:19:52;9.53;;;8.23;;
7607;SDS011;3845;48.120;11.534;2022-12-07T05:22:17;9.83;;;8.13;;
7607;SDS011;3845;48.120;11.534;2022-12-07T05:24:43;10.43;;;7.67;;
7607;SDS011;3845;48.120;11.534;2022-12-07T05:27:08;9.53;;;8.23;;
7607;SDS011;3845;48.120;11.534;2022-12-07T05:29:33;10.30;;;8.80;;
7607;SDS011;3845;48.120;11.534;2022-12-07T05:31:58;8.73;;;7.53;;
7607;SDS011;3845;48.120;11.534;2022-12-07T05:34:24;8.13;;;6.97;;
7607;SDS011;3845;48.120;11.534;2022-12-07T05:36:49;10.53;;;8.50;;
7607;SDS011;3845;48.120;11.534;2022-12-07T05:39:15;15.03;;;11.90;;
7607;SDS011;3845;48.120;11.534;2022-12-07T05:41:40;12.57;;;10.53;;
7607;SDS011;3845;48.120;11.534;2022-12-07T05:44:24;13.73;;;11.47;;
7607;SDS011;3845;48.120;11.534;2022-12-07T05:46:50;15.17;;;10.50;;
7607;SDS011;3845;48.120;11.534;2022-12-07T05:49:15;10.03;;;8.80;;
7607;SDS011;3845;48.120;11.534;2022-12-07T05:51:40;12.93;;;10.00;;
7607;SDS011;3845;48.120;11.534;2022-12-07T05:54:06;9.77;;;8.60;;
7607;SDS011;3845;48.120;11.534;2022-12-07T05:56:31;9.60;;;8.60;;
7607;SDS011;3845;48.120;11.534;2022-12-07T05:58:56;11.27;;;9.80;;
7607;SDS011;3845;48.120;11.534;2022-12-07T06:01:40;12.30;;;10.80;;
7607;SDS011;3845;48.120;11.534;2022-12-07T06:04:05;15.17;;;12.70;;
7607;SDS011;3845;48.120;11.534;2022-12-07T06:06:31;13.03;;;10.80;;
7607;SDS011;3845;48.120;11.534;2022-12-07T06:08:56;14.20;;;11.87;;
7607;SDS011;3845;48.120;11.534;2022-12-07T06:11:21;11.53;;;10.33;;
7607;SDS011;3845;48.120;11.534;2022-12-07T06:14:05;10.40;;;9.23;;
7607;SDS011;3845;48.120;11.534;2022-12-07T06:16:30;12.80;;;10.27;;
7607;SDS011;3845;48.120;11.534;2022-12-07T06:18:55;10.07;;;9.03;;
7607;SDS011;3845;48.120;11.534;2022-12-07T06:21:21;10.60;;;8.87;;
7607;SDS011;3845;48.120;11.534;2022-12-07T06:23:46;10.53;;;9.10;;
7607;SDS011;3845;48.120;11.534;2022-12-07T06:26:12;11.97;;;9.33;;
7607;SDS011;3845;48.120;11.534;2022-12-07T06:28:38;9.13;;;8.13;;
7607;SDS011;3845;48.120;11.534;2022-12-07T06:31:03;9.17;;;7.97;;
7607;SDS011;3845;48.120;11.534;2022-12-07T06:33:29;15.40;;;12.40;;
7607;SDS011;3845;48.120;11.534;2022-12-07T06:35:54;13.83;;;11.80;;
7607;SDS011;3845;48.120;11.534;2022-12-07T06:38:20;16.67;;;13.07;;
7607;SDS011;3845;48.120;11.534;2022-12-07T06:40:45;15.57;;;11.07;;
7607;SDS011;3845;48.120;11.534;2022-12-07T06:43:10;12.67;;;9.93;;
7607;SDS011;3845;48.120;11.534;2022-12-07T06:45:35;11.87;;;10.17;;
7607;SDS011;3845;48.120;11.534;2022-12-07T06:48:01;9.73;;;8.47;;
7607;SDS011;3845;48.120;11.534;2022-12-07T06:50:26;11.17;;;9.07;;
7607;SDS011;3845;48.120;11.534;2022-12-07T06:52:51;9.83;;;8.40;;
7607;SDS011;3845;48.120;11.534;2022-12-07T06:55:17;12.13;;;9.90;;
7607;SDS011;3845;48.120;11.534;2022-12-07T06:57:42;11.13;;;9.87;;
7607;SDS011;3845;48.120;11.534;2022-12-07T07:00:08;9.37;;;8.37;;
7607;SDS011;3845;48.120;11.534;2022-12-07T07:02:34;9.90;;;8.87;;
7607;SDS011;3845;48.120;11.534;2022-12-07T07:04:59;11.70;;;9.23;;
7607;SDS011;3845;48.120;11.534;2022-12-07T07:07:24;12.43;;;10.00;;
7607;SDS011;3845;48.120;11.534;2022-12-07T07:09:49;11.90;;;10.43;;
7607;SDS011;3845;48.120;11.534;2022-12-07T07:12:15;9.80;;;8.80;;
7607;SDS011;3845;48.120;11.534;2022-12-07T07:14:40;10.13;;;9.03;;
7607;SDS011;3845;48.120;11.534;2022-12-07T07:17:05;10.90;;;9.20;;
7607;SDS011;3845;48.120;11.534;2022-12-07T07:19:31;9.90;;;8.67;;
7607;SDS011;3845;48.120;11.534;2022-12-07T07:21:56;11.17;;;9.57;;
7607;SDS011;3845;48.120;11.534;2022-12-07T07:24:21;9.73;;;8.63;;
7607;SDS011;3845;48.120;11.534;2022-12-07T07:26:46;13.23;;;11.20;;
7607;SDS011;3845;48.120;11.534;2022-12-07T07:29:12;16.60;;;13.80;;
7607;SDS011;3845;48.120;11.534;2022-12-07T07:31:37;12.87;;;10.50;;
7607;SDS011;3845;48.120;11.534;2022-12-07T07:34:02;11.10;;;9.40;;
7607;SDS011;3845;48.120;11.534;2022-12-07T07:36:28;10.33;;;8.77;;
7607;SDS011;3845;48.120;11.534;2022-12-07T07:38:53;8.60;;;7.70;;
7607;SDS011;3845;48.120;11.534;2022-12-07T07:41:18;9.50;;;8.07;;
7607;SDS011;3845;48.120;11.534;2022-12-07T07:43:43;9.67;;;8.23;;
7607;SDS011;3845;48.120;11.534;2022-12-07T07:46:09;8.77;;;7.57;;
7607;SDS011;3845;48.120;11.534;2022-12-07T07:48:34;9.33;;;8.37;;
7607;SDS011;3845;48.120;11.534;2022-12-07T07:50:59;12.87;;;9.17;;
7607;SDS011;3845;48.120;11.534;2022-12-07T07:53:25;9.20;;;8.20;;
7607;SDS011;3845;48.120;11.534;2022-12-07T07:55:53;10.57;;;8.73;;
7607;SDS011;3845;48.120;11.534;2022-12-07T07:58:19;9.87;;;8.10;;
7607;SDS011;3845;48.120;11.534;2022-12-07T08:00:44;9.60;;;8.30;;
7607;SDS011;3845;48.120;11.534;2022-12-07T08:03:10;10.07;;;8.30;;
7607;SDS011;3845;48.120;11.534;2022-12-07T08:05:36;12.00;;;9.47;;
7607;SDS011;3845;48.120;11.534;2022-12-07T08:08:02;11.43;;;9.53;;
7607;SDS011;3845;48.120;11.534;2022-12-07T08:10:27;10.70;;;9.27;;
7607;SDS011;3845;48.120;11.534;2022-12-07T08:12:52;11.63;;;8.97;;
7607;SDS011;3845;48.120;11.534;2022-12-07T08:15:36;10.53;;;9.40;;
7607;SDS011;3845;48.120;11.534;2022-12-07T08:18:03;10.10;;;8.73;;
7607;SDS011;3845;48.120;11.534;2022-12-07T08:20:29;13.60;;;10.10;;
7607;SDS011;3845;48.120;11.534;2022-12-07T08:22:55;11.27;;;9.33;;
7607;SDS011;3845;48.120;11.534;2022-12-07T08:25:20;10.70;;;9.33;;
7607;SDS011;3845;48.120;11.534;2022-12-07T08:27:47;10.63;;;8.83;;
7607;SDS011;3845;48.120;11.534;2022-12-07T08:30:13;13.90;;;11.60;;
7607;SDS011;3845;48.120;11.534;2022-12-07T08:32:39;19.07;;;14.20;;
7607;SDS011;3845;48.120;11.534;2022-12-07T08:35:04;13.27;;;11.20;;
7607;SDS011;3845;48.120;11.534;2022-12-07T08:37:30;13.80;;;10.40;;
7607;SDS011;3845;48.120;11.534;2022-12-07T08:39:56;12.53;;;10.53;;
7607;SDS011;3845;48.120;11.534;2022-12-07T08:42:21;15.07;;;10.93;;
7607;SDS011;3845;48.120;11.534;2022-12-07T08:44:48;11.83;;;10.00;;
7607;SDS011;3845;48.120;11.534;2022-12-07T08:47:13;11.60;;;9.37;;
7607;SDS011;3845;48.120;11.534;2022-12-07T08:49:43;11.87;;;9.70;;
7607;SDS011;3845;48.120;11.534;2022-12-07T08:52:10;11.27;;;9.67;;
7607;SDS011;3845;48.120;11.534;2022-12-07T08:54:36;11.03;;;9.17;;
7607;SDS011;3845;48.120;11.534;2022-12-07T08:57:04;11.83;;;10.30;;
7607;SDS011;3845;48.120;11.534;2022-12-07T08:59:29;12.33;;;10.90;;
7607;SDS011;3845;48.120;11.534;2022-12-07T09:01:55;11.37;;;10.17;;
7607;SDS011;3845;48.120;11.534;2022-12-07T09:04:20;11.70;;;9.97;;
7607;SDS011;3845;48.120;11.534;2022-12-07T09:06:46;12.50;;;10.37;;
7607;SDS011;3845;48.120;11.534;2022-12-07T09:09:11;12.40;;;10.43;;
7607;SDS011;3845;48.120;11.534;2022-12-07T09:11:38;10.83;;;9.37;;
7607;SDS011;3845;48.120;11.534;2022-12-07T09:14:04;10.33;;;9.23;;
7607;SDS011;3845;48.120;11.534;2022-12-07T09:16:29;12.33;;;10.50;;
7607;SDS011;3845;48.120;11.534;2022-12-07T09:18:54;10.33;;;9.07;;
7607;SDS011;3845;48.120;11.534;2022-12-07T09:21:20;9.93;;;8.63;;
7607;SDS011;3845;48.120;11.534;2022-12-07T09:23:45;10.67;;;8.93;;
7607;SDS011;3845;48.120;11.534;2022-12-07T09:26:10;14.40;;;10.53;;
7607;SDS011;3845;48.120;11.534;2022-12-07T09:28:36;10.80;;;8.93;;
7607;SDS011;3845;48.120;11.534;2022-12-07T09:31:02;12.00;;;9.70;;
7607;SDS011;3845;48.120;11.534;2022-12-07T09:33:27;10.90;;;9.60;;
7607;SDS011;3845;48.120;11.534;2022-12-07T09:35:53;12.50;;;10.03;;
7607;SDS011;3845;48.120;11.534;2022-12-07T09:38:18;10.90;;;9.70;;
7607;SDS011;3845;48.120;11.534;2022-12-07T09:40:44;13.50;;;9.00;;
7607;SDS011;3845;48.120;11.534;2022-12-07T09:43:14;12.57;;;9.30;;
7607;SDS011;3845;48.120;11.534;2022-12-07T09:45:42;15.20;;;10.87;;
7607;SDS011;3845;48.120;11.534;2022-12-07T09:48:13;10.90;;;9.43;;
7607;SDS011;3845;48.120;11.534;2022-12-07T09:50:42;11.50;;;9.47;;
7607;SDS011;3845;48.120;11.534;2022-12-07T09:53:09;10.10;;;8.80;;
7607;SDS011;3845;48.120;11.534;2022-12-07T09:55:37;11.60;;;10.30;;
7607;SDS011;3845;48.120;11.534;2022-12-07T09:58:03;11.33;;;9.70;;
7607;SDS011;3845;48.120;11.534;2022-12-07T10:00:29;14.70;;;10.80;;
7607;SDS011;3845;48.120;11.534;2022-12-07T10:02:58;12.50;;;10.13;;
7607;SDS011;3845;48.120;11.534;2022-12-07T10:05:32;31.50;;;23.83;;
7607;SDS011;3845;48.120;11.534;2022-12-07T10:08:01;15.13;;;13.00;;
7607;SDS011;3845;48.120;11.534;2022-12-07T10:10:30;15.07;;;11.50;;
7607;SDS011;3845;48.120;11.534;2022-12-07T10:13:00;14.37;;;11.83;;
7607;SDS011;3845;48.120;11.534;2022-12-07T10:18:35;10.37;;;8.73;;
7607;SDS011;3845;48.120;11.534;2022-12-07T10:21:05;9.37;;;8.37;;
7607;SDS011;3845;48.120;11.534;2022-12-07T10:23:42;9.60;;;8.53;;
7607;SDS011;3845;48.120;11.534;2022-12-07T10:29:46;10.00;;;8.63;;
7607;SDS011;3845;48.120;11.534;2022-12-07T10:31:48;9.60;;;8.23;;
7607;SDS011;3845;48.120;11.534;2022-12-07T10:36:49;9.33;;;7.83;;
7607;SDS011;3845;48.120;11.534;2022-12-07T10:39:16;9.27;;;7.03;;
7607;SDS011;3845;48.120;11.534;2022-12-07T10:41:53;9.57;;;8.17;;
7607;SDS011;3845;48.120;11.534;2022-12-07T10:44:24;9.80;;;8.00;;
7607;SDS011;3845;48.120;11.534;2022-12-07T11:00:31;9.03;;;7.53;;
7607;SDS011;3845;48.120;11.534;2022-12-07T11:03:23;10.07;;;8.07;;
7607;SDS011;3845;48.120;11.534;2022-12-07T11:16:46;7.83;;;6.83;;
7607;SDS011;3845;48.120;11.534;2022-12-07T11:21:55;5.80;;;5.20;;
7607;SDS011;3845;48.120;11.534;2022-12-07T11:24:25;7.97;;;7.00;;
7607;SDS011;3845;48.120;11.534;2022-12-07T11:37:23;9.63;;;6.60;;
7607;SDS011;3845;48.120;11.534;2022-12-07T11:39:59;7.17;;;6.13;;
7607;SDS011;3845;48.120;11.534;2022-12-07T11:42:29;7.50;;;6.67;;
7607;SDS011;3845;48.120;11.534;2022-12-07T11:45:03;8.40;;;6.10;;
7607;SDS011;3845;48.120;11.534;2022-12-07T11:47:45;6.40;;;5.50;;
7607;SDS011;3845;48.120;11.534;2022-12-07T11:58:57;7.70;;;6.90;;
7607;SDS011;3845;48.120;11.534;2022-12-07T12:01:32;10.37;;;8.53;;
7607;SDS011;3845;48.120;11.534;2022-12-07T12:04:07;9.83;;;8.30;;
7607;SDS011;3845;48.120;11.534;2022-12-07T12:06:42;7.33;;;6.47;;
7607;SDS011;3845;48.120;11.534;2022-12-07T12:09:13;7.63;;;5.90;;
7607;SDS011;3845;48.120;11.534;2022-12-07T12:17:37;7.67;;;6.40;;
7607;SDS011;3845;48.120;11.534;2022-12-07T12:20:29;7.50;;;6.53;;
7607;SDS011;3845;48.120;11.534;2022-12-07T12:23:06;7.17;;;6.33;;
7607;SDS011;3845;48.120;11.534;2022-12-07T12:25:38;7.57;;;6.37;;
7607;SDS011;3845;48.120;11.534;2022-12-07T12:28:05;8.47;;;7.40;;
7607;SDS011;3845;48.120;11.534;2022-12-07T12:33:01;8.70;;;7.13;;
7607;SDS011;3845;48.120;11.534;2022-12-07T12:35:33;8.93;;;7.40;;
7607;SDS011;3845;48.120;11.534;2022-12-07T12:40:48;8.20;;;6.33;;
7607;SDS011;3845;48.120;11.534;2022-12-07T13:01:46;14.20;;;7.00;;
7607;SDS011;3845;48.120;11.534;2022-12-07T13:04:36;8.70;;;6.97;;
7607;SDS011;3845;48.120;11.534;2022-12-07T13:07:03;7.97;;;6.60;;
7607;SDS011;3845;48.120;11.534;2022-12-07T13:09:29;11.77;;;9.37;;
7607;SDS011;3845;48.120;11.534;2022-12-07T13:12:15;11.70;;;9.17;;
7607;SDS011;3845;48.120;11.534;2022-12-07T13:14:54;13.00;;;9.73;;
7607;SDS011;3845;48.120;11.534;2022-12-07T13:19:55;12.23;;;9.70;;
7607;SDS011;3845;48.120;11.534;2022-12-07T13:24:56;7.90;;;6.70;;
7607;SDS011;3845;48.120;11.534;2022-12-07T13:27:22;7.73;;;6.57;;
7607;SDS011;3845;48.120;11.534;2022-12-07T13:29:48;7.90;;;6.70;;
7607;SDS011;3845;48.120;11.534;2022-12-07T13:32:26;7.83;;;6.40;;
7607;SDS011;3845;48.120;11.534;2022-12-07T13:34:52;7.10;;;5.40;;
7607;SDS011;3845;48.120;11.534;2022-12-07T13:37:25;6.63;;;5.57;;
7607;SDS011;3845;48.120;11.534;2022-12-07T13:39:52;6.87;;;5.93;;
7607;SDS011;3845;48.120;11.534;2022-12-07T13:42:28;6.53;;;5.80;;
7607;SDS011;3845;48.120;11.534;2022-12-07T13:44:58;7.60;;;6.80;;
7607;SDS011;3845;48.120;11.534;2022-12-07T13:50:01;12.13;;;9.80;;
7607;SDS011;3845;48.120;11.534;2022-12-07T13:52:44;9.50;;;7.80;;
7607;SDS011;3845;48.120;11.534;2022-12-07T13:55:16;7.67;;;6.47;;
7607;SDS011;3845;48.120;11.534;2022-12-07T13:57:42;8.73;;;6.80;;
7607;SDS011;3845;48.120;11.534;2022-12-07T14:00:17;7.63;;;6.10;;
7607;SDS011;3845;48.120;11.534;2022-12-07T14:03:00;6.90;;;5.50;;
7607;SDS011;3845;48.120;11.534;2022-12-07T14:05:31;7.70;;;6.23;;
7607;SDS011;3845;48.120;11.534;2022-12-07T14:07:59;6.60;;;5.70;;
7607;SDS011;3845;48.120;11.534;2022-12-07T14:10:27;7.30;;;5.70;;
7607;SDS011;3845;48.120;11.534;2022-12-07T14:12:53;5.13;;;4.50;;
7607;SDS011;3845;48.120;11.534;2022-12-07T14:15:20;6.20;;;5.00;;
7607;SDS011;3845;48.120;11.534;2022-12-07T14:17:51;6.90;;;5.53;;
7607;SDS011;3845;48.120;11.534;2022-12-07T14:23:06;10.73;;;8.27;;
7607;SDS011;3845;48.120;11.534;2022-12-07T14:25:51;9.77;;;7.47;;
7607;SDS011;3845;48.120;11.534;2022-12-07T14:28:27;9.87;;;7.03;;
7607;SDS011;3845;48.120;11.534;2022-12-07T14:30:54;9.10;;;7.40;;
7607;SDS011;3845;48.120;11.534;2022-12-07T14:33:19;8.33;;;7.07;;
7607;SDS011;3845;48.120;11.534;2022-12-07T14:35:44;8.77;;;5.90;;
7607;SDS011;3845;48.120;11.534;2022-12-07T14:38:10;6.10;;;5.13;;
7607;SDS011;3845;48.120;11.534;2022-12-07T14:40:35;7.23;;;5.20;;
7607;SDS011;3845;48.120;11.534;2022-12-07T14:43:01;5.87;;;4.53;;
7607;SDS011;3845;48.120;11.534;2022-12-07T14:45:31;5.27;;;4.20;;
7607;SDS011;3845;48.120;11.534;2022-12-07T14:47:57;4.60;;;4.00;;
7607;SDS011;3845;48.120;11.534;2022-12-07T14:50:22;4.47;;;3.73;;
7607;SDS011;3845;48.120;11.534;2022-12-07T14:52:55;5.03;;;4.00;;
7607;SDS011;3845;48.120;11.534;2022-12-07T14:55:30;4.50;;;3.73;;
7607;SDS011;3845;48.120;11.534;2022-12-07T14:57:56;4.90;;;3.70;;
7607;SDS011;3845;48.120;11.534;2022-12-07T15:00:24;5.90;;;3.80;;
7607;SDS011;3845;48.120;11.534;2022-12-07T15:02:51;4.53;;;3.87;;
7607;SDS011;3845;48.120;11.534;2022-12-07T15:05:16;5.23;;;3.80;;
7607;SDS011;3845;48.120;11.534;2022-12-07T15:07:42;4.40;;;3.33;;
7607;SDS011;3845;48.120;11.534;2022-12-07T15:10:19;4.97;;;3.60;;
7607;SDS011;3845;48.120;11.534;2022-12-07T15:12:48;6.00;;;4.77;;
7607;SDS011;3845;48.120;11.534;2022-12-07T15:15:13;7.67;;;5.27;;
7607;SDS011;3845;48.120;11.534;2022-12-07T15:17:39;7.33;;;6.00;;
7607;SDS011;3845;48.120;11.534;2022-12-07T15:20:05;8.07;;;6.10;;
7607;SDS011;3845;48.120;11.534;2022-12-07T15:22:32;7.47;;;5.30;;
7607;SDS011;3845;48.120;11.534;2022-12-07T15:24:57;6.27;;;5.07;;
7607;SDS011;3845;48.120;11.534;2022-12-07T15:27:23;8.03;;;5.90;;
7607;SDS011;3845;48.120;11.534;2022-12-07T15:29:48;6.77;;;5.40;;
7607;SDS011;3845;48.120;11.534;2022-12-07T15:32:13;7.50;;;5.80;;
7607;SDS011;3845;48.120;11.534;2022-12-07T15:34:39;7.03;;;5.60;;
7607;SDS011;3845;48.120;11.534;2022-12-07T15:37:04;7.40;;;5.33;;
7607;SDS011;3845;48.120;11.534;2022-12-07T15:39:29;6.30;;;5.50;;
7607;SDS011;3845;48.120;11.534;2022-12-07T15:41:55;6.40;;;5.70;;
7607;SDS011;3845;48.120;11.534;2022-12-07T15:44:20;6.13;;;5.23;;
7607;SDS011;3845;48.120;11.534;2022-12-07T15:47:04;6.70;;;5.67;;
7607;SDS011;3845;48.120;11.534;2022-12-07T15:49:29;7.67;;;5.60;;
7607;SDS011;3845;48.120;11.534;2022-12-07T15:51:55;7.20;;;5.60;;
7607;SDS011;3845;48.120;11.534;2022-12-07T15:54:25;8.53;;;6.43;;
7607;SDS011;3845;48.120;11.534;2022-12-07T15:56:51;6.73;;;5.83;;
7607;SDS011;3845;48.120;11.534;2022-12-07T15:59:16;7.63;;;6.30;;
7607;SDS011;3845;48.120;11.534;2022-12-07T16:01:42;8.37;;;6.70;;
7607;SDS011;3845;48.120;11.534;2022-12-07T16:04:07;7.33;;;5.93;;
7607;SDS011;3845;48.120;11.534;2022-12-07T16:06:33;16.27;;;12.40;;
7607;SDS011;3845;48.120;11.534;2022-12-07T16:08:58;28.30;;;20.30;;
7607;SDS011;3845;48.120;11.534;2022-12-07T16:11:23;21.90;;;17.03;;
7607;SDS011;3845;48.120;11.534;2022-12-07T16:13:49;19.43;;;15.27;;
7607;SDS011;3845;48.120;11.534;2022-12-07T16:16:15;18.33;;;13.83;;
7607;SDS011;3845;48.120;11.534;2022-12-07T16:18:42;13.93;;;11.63;;
7607;SDS011;3845;48.120;11.534;2022-12-07T16:21:08;12.40;;;10.07;;
7607;SDS011;3845;48.120;11.534;2022-12-07T16:23:33;12.03;;;9.33;;
7607;SDS011;3845;48.120;11.534;2022-12-07T16:26:08;10.17;;;8.17;;
7607;SDS011;3845;48.120;11.534;2022-12-07T16:28:36;10.87;;;8.57;;
7607;SDS011;3845;48.120;11.534;2022-12-07T16:31:05;9.63;;;7.77;;
7607;SDS011;3845;48.120;11.534;2022-12-07T16:33:33;9.33;;;6.83;;
7607;SDS011;3845;48.120;11.534;2022-12-07T16:36:00;10.53;;;7.83;;
7607;SDS011;3845;48.120;11.534;2022-12-07T16:38:25;9.97;;;8.00;;
7607;SDS011;3845;48.120;11.534;2022-12-07T16:40:51;9.97;;;7.47;;
7607;SDS011;3845;48.120;11.534;2022-12-07T16:43:17;10.23;;;7.50;;
7607;SDS011;3845;48.120;11.534;2022-12-07T16:45:43;8.80;;;7.10;;
7607;SDS011;3845;48.120;11.534;2022-12-07T16:48:10;10.90;;;7.73;;
7607;SDS011;3845;48.120;11.534;2022-12-07T16:50:38;8.50;;;6.63;;
7607;SDS011;3845;48.120;11.534;2022-12-07T16:53:07;9.73;;;6.90;;
7607;SDS011;3845;48.120;11.534;2022-12-07T16:55:40;9.90;;;7.00;;
7607;SDS011;3845;48.120;11.534;2022-12-07T16:58:07;8.20;;;6.57;;
7607;SDS011;3845;48.120;11.534;2022-12-07T17:00:33;8.03;;;6.33;;
7607;SDS011;3845;48.120;11.534;2022-12-07T17:02:58;9.10;;;6.93;;
7607;SDS011;3845;48.120;11.534;2022-12-07T17:05:24;8.60;;;6.60;;
7607;SDS011;3845;48.120;11.534;2022-12-07T17:07:50;9.80;;;7.37;;
7607;SDS011;3845;48.120;11.534;2022-12-07T17:10:15;11.63;;;7.67;;